createdAt,value
2018-09-14T00:00:35.959Z,99.90
2018-09-14T00:05:45.828Z,99.90
2018-09-14T00:10:55.864Z,99.90
2018-09-14T00:16:05.900Z,99.90
2018-09-14T00:21:15.927Z,99.90
2018-09-14T00:26:26.247Z,99.90
2018-09-14T00:31:36.316Z,99.90
2018-09-14T00:36:46.260Z,99.90
2018-09-14T00:41:56.332Z,99.90
2018-09-14T00:47:06.351Z,99.90
2018-09-14T00:52:16.336Z,99.90
2018-09-14T00:57:26.187Z,99.90
2018-09-14T01:02:36.345Z,99.90
2018-09-14T01:07:46.229Z,99.90
2018-09-14T01:12:56.244Z,99.90
2018-09-14T01:18:06.240Z,99.90
2018-09-14T01:23:16.100Z,99.90
2018-09-14T01:28:26.120Z,99.90
2018-09-14T01:33:36.200Z,99.90
2018-09-14T01:38:46.136Z,99.90
2018-09-14T01:43:56.143Z,99.90
2018-09-14T01:49:06.515Z,99.90
2018-09-14T01:54:16.505Z,99.90
2018-09-14T01:59:26.628Z,99.90
2018-09-14T02:04:36.559Z,99.90
2018-09-14T02:09:46.624Z,99.90
2018-09-14T02:14:56.603Z,99.90
2018-09-14T02:20:06.513Z,99.90
2018-09-14T02:25:16.598Z,99.90
2018-09-14T02:30:26.610Z,99.90
2018-09-14T02:35:36.616Z,99.90
2018-09-14T02:40:46.574Z,99.90
2018-09-14T02:45:56.489Z,99.90
2018-09-14T02:51:06.559Z,99.90
2018-09-14T02:56:16.418Z,99.90
2018-09-14T03:01:26.431Z,99.90
2018-09-14T03:06:36.403Z,99.90
2018-09-14T03:11:46.404Z,99.90
2018-09-14T03:16:56.472Z,99.90
2018-09-14T03:22:06.531Z,99.90
2018-09-14T03:27:16.557Z,99.90
2018-09-14T03:32:26.637Z,99.90
2018-09-14T03:37:36.670Z,99.90
2018-09-14T03:42:46.580Z,99.90
2018-09-14T03:47:56.474Z,99.90
2018-09-14T03:53:06.364Z,99.90
2018-09-14T03:58:16.360Z,99.90
2018-09-14T04:03:26.484Z,99.90
2018-09-14T04:08:36.434Z,99.90
2018-09-14T04:13:47.252Z,99.90
2018-09-14T04:19:03.919Z,99.90
2018-09-14T04:24:13.867Z,99.90
2018-09-14T04:29:23.732Z,99.90
2018-09-14T04:34:33.832Z,99.90
2018-09-14T04:39:43.932Z,99.90
2018-09-14T04:44:53.884Z,99.90
2018-09-14T04:50:03.748Z,99.90
2018-09-14T04:55:14.075Z,99.90
2018-09-14T05:00:24.048Z,99.90
2018-09-14T05:05:34.125Z,99.90
2018-09-14T05:10:44.156Z,99.90
2018-09-14T05:15:54.293Z,99.90
2018-09-14T05:21:04.236Z,99.90
2018-09-14T05:26:14.232Z,99.90
2018-09-14T05:31:24.300Z,99.90
2018-09-14T05:36:34.209Z,99.90
2018-09-14T05:41:44.483Z,99.90
2018-09-14T05:46:54.384Z,99.90
2018-09-14T05:52:04.455Z,99.90
2018-09-14T05:57:14.632Z,99.90
2018-09-14T06:02:24.631Z,99.90
2018-09-14T06:07:34.952Z,99.90
2018-09-14T06:12:45.036Z,99.90
2018-09-14T06:17:55.026Z,99.90
2018-09-14T06:23:06.037Z,99.90
2018-09-14T06:28:16.020Z,99.90
2018-09-14T06:33:26.072Z,99.90
2018-09-14T06:38:36.145Z,99.90
2018-09-14T06:43:46.215Z,99.90
2018-09-14T06:48:56.203Z,99.90
2018-09-14T06:54:06.425Z,99.90
2018-09-14T06:59:16.277Z,99.90
2018-09-14T07:04:26.289Z,99.90
2018-09-14T07:09:36.336Z,99.90
2018-09-14T07:14:46.251Z,99.90
2018-09-14T07:19:56.200Z,99.90
2018-09-14T07:25:06.104Z,99.90
2018-09-14T07:30:16.267Z,99.90
2018-09-14T07:35:26.227Z,99.90
2018-09-14T07:40:36.113Z,99.90
2018-09-14T07:45:46.244Z,99.90
2018-09-14T07:50:56.112Z,99.90
2018-09-14T07:56:06.195Z,99.90
2018-09-14T08:01:16.170Z,99.90
2018-09-14T08:06:26.009Z,99.90
2018-09-14T08:11:36.058Z,99.90
2018-09-14T08:16:46.007Z,99.90
2018-09-14T08:21:55.949Z,99.90
2018-09-14T08:27:05.962Z,99.90
2018-09-14T08:32:15.977Z,99.90
2018-09-14T08:37:25.975Z,99.90
2018-09-14T08:42:36.263Z,99.90
2018-09-14T08:47:46.171Z,99.90
2018-09-14T08:52:56.197Z,99.90
2018-09-14T08:58:06.261Z,99.90
2018-09-14T09:03:16.339Z,99.90
2018-09-14T09:08:26.347Z,99.90
2018-09-14T09:13:36.392Z,99.90
2018-09-14T09:18:46.444Z,99.90
2018-09-14T09:23:56.468Z,99.90
2018-09-14T09:29:06.635Z,99.90
2018-09-14T09:34:17.388Z,99.90
2018-09-14T09:39:27.337Z,99.90
2018-09-14T09:44:37.381Z,99.90
2018-09-14T09:49:47.299Z,99.90
2018-09-14T09:54:57.208Z,99.90
2018-09-14T10:00:11.380Z,99.90
2018-09-14T10:05:26.731Z,99.90
2018-09-14T10:10:36.732Z,99.90
2018-09-14T10:15:46.801Z,99.90
2018-09-14T10:20:56.860Z,99.90
2018-09-14T10:26:06.948Z,99.90
2018-09-14T10:31:16.962Z,99.90
2018-09-14T10:36:26.968Z,99.90
2018-09-14T10:41:36.956Z,99.90
2018-09-14T10:46:46.866Z,99.90
2018-09-14T10:51:56.868Z,99.90
2018-09-14T10:57:06.769Z,99.90
2018-09-14T11:02:16.756Z,99.90
2018-09-14T11:07:26.844Z,99.90
2018-09-14T11:12:36.813Z,99.90
2018-09-14T11:17:46.780Z,99.90
2018-09-14T11:22:56.816Z,99.90
2018-09-14T11:28:06.844Z,99.90
2018-09-14T11:33:16.751Z,99.90
2018-09-14T11:38:26.751Z,99.90
2018-09-14T11:43:36.788Z,99.90
2018-09-14T11:48:46.974Z,99.90
2018-09-14T11:53:57.136Z,99.90
2018-09-14T11:59:07.215Z,99.90
2018-09-14T12:04:17.067Z,99.90
2018-09-14T12:09:27.283Z,99.90
2018-09-14T12:14:37.231Z,99.90
2018-09-14T12:19:47.063Z,99.90
2018-09-14T12:24:57.048Z,99.90
2018-09-14T12:30:06.924Z,98.20
2018-09-14T12:35:16.955Z,99.20
2018-09-14T12:40:26.870Z,97.60
2018-09-14T12:45:36.760Z,97.10
2018-09-14T12:50:47.059Z,97.30
2018-09-14T12:55:56.968Z,96.80
2018-09-14T13:01:06.920Z,97.90
2018-09-14T13:06:16.883Z,99.00
2018-09-14T13:11:26.927Z,97.80
2018-09-14T13:16:37.084Z,95.90
2018-09-14T13:21:47.180Z,94.10
2018-09-14T13:26:57.094Z,93.80
2018-09-14T13:32:07.252Z,96.50
2018-09-14T13:37:17.340Z,96.40
2018-09-14T13:42:27.453Z,93.80
2018-09-14T13:47:37.411Z,94.10
2018-09-14T13:52:47.551Z,93.70
2018-09-14T13:57:57.448Z,92.10
2018-09-14T14:03:07.532Z,90.30
2018-09-14T14:08:17.587Z,90.00
2018-09-14T14:13:27.598Z,90.70
2018-09-14T14:18:37.741Z,92.60
2018-09-14T14:23:47.817Z,91.00
2018-09-14T14:28:57.744Z,90.30
2018-09-14T14:34:07.755Z,88.40
2018-09-14T14:39:17.772Z,89.70
2018-09-14T14:44:27.780Z,93.60
2018-09-14T14:49:37.884Z,91.60
2018-09-14T14:54:47.820Z,91.80
2018-09-14T14:59:57.736Z,91.50
2018-09-14T15:05:07.625Z,91.70
2018-09-14T15:10:17.672Z,93.10
2018-09-14T15:15:27.736Z,91.90
2018-09-14T15:20:37.640Z,93.20
2018-09-14T15:25:47.552Z,90.20
2018-09-14T15:30:57.738Z,92.90
2018-09-14T15:36:07.644Z,91.20
2018-09-14T15:41:17.612Z,92.50
2018-09-14T15:46:27.937Z,94.30
2018-09-14T15:51:37.934Z,95.10
2018-09-14T15:56:47.841Z,96.20
2018-09-14T16:01:57.830Z,96.90
2018-09-14T16:07:07.708Z,98.60
2018-09-14T16:12:17.760Z,97.10
2018-09-14T16:17:27.787Z,97.60
2018-09-14T16:22:37.700Z,97.30
2018-09-14T16:27:47.644Z,98.00
2018-09-14T16:32:57.668Z,99.60
2018-09-14T16:38:07.720Z,98.80
2018-09-14T16:43:17.751Z,99.80
2018-09-14T16:48:27.637Z,98.60
2018-09-14T16:53:37.684Z,99.40
2018-09-14T16:58:47.812Z,99.80
2018-09-14T17:03:57.764Z,99.90
2018-09-14T17:09:08.516Z,99.90
2018-09-14T17:14:18.718Z,99.90
2018-09-14T17:19:28.752Z,99.90
2018-09-14T17:24:38.673Z,99.90
2018-09-14T17:29:48.813Z,99.90
2018-09-14T17:34:58.832Z,99.90
2018-09-14T17:40:08.870Z,99.90
2018-09-14T17:45:18.810Z,99.90
2018-09-14T17:50:28.746Z,99.90
2018-09-14T17:55:38.645Z,99.90
2018-09-14T18:00:48.657Z,99.90
2018-09-14T18:05:58.564Z,99.90
2018-09-14T18:11:08.472Z,99.90
2018-09-14T18:16:18.516Z,99.90
2018-09-14T18:21:28.566Z,99.90
2018-09-14T18:26:38.496Z,99.90
2018-09-14T18:31:48.540Z,99.90
2018-09-14T18:36:59.140Z,99.90
2018-09-14T18:42:09.084Z,99.90
2018-09-14T18:47:19.486Z,99.90
2018-09-14T18:52:29.589Z,99.90
2018-09-14T18:57:39.437Z,99.90
2018-09-14T19:02:49.300Z,99.90
2018-09-14T19:07:59.407Z,99.90
2018-09-14T19:13:09.316Z,99.90
2018-09-14T19:18:19.400Z,99.90
2018-09-14T19:23:29.317Z,99.90
2018-09-14T19:28:39.397Z,99.90
2018-09-14T19:33:49.479Z,99.90
2018-09-14T19:38:59.620Z,99.90
2018-09-14T19:44:09.768Z,99.90
2018-09-14T19:49:19.801Z,99.90
2018-09-14T19:54:29.890Z,99.90
2018-09-14T19:59:39.954Z,99.90
2018-09-14T20:04:50.101Z,99.90
2018-09-14T20:10:00.221Z,99.90
2018-09-14T20:15:10.525Z,99.90
2018-09-14T20:20:21.326Z,99.90
2018-09-14T20:25:31.335Z,99.90
2018-09-14T20:30:41.357Z,99.90
2018-09-14T20:35:51.352Z,99.90
2018-09-14T20:41:01.529Z,99.90
2018-09-14T20:46:11.720Z,99.90
2018-09-14T20:51:21.940Z,99.90
2018-09-14T20:56:31.991Z,99.90
2018-09-14T21:01:42.044Z,99.90
2018-09-14T21:06:51.947Z,99.90
2018-09-14T21:12:02.000Z,99.90
2018-09-14T21:17:12.058Z,99.90
2018-09-14T21:22:21.947Z,99.90
2018-09-14T21:27:32.004Z,99.90
2018-09-14T21:32:41.915Z,99.90
2018-09-14T21:37:51.932Z,99.90
2018-09-14T21:43:01.975Z,99.90
2018-09-14T21:48:11.889Z,99.90
2018-09-14T21:53:21.926Z,99.90
2018-09-14T21:58:31.791Z,99.90
2018-09-14T22:03:42.748Z,99.90
2018-09-14T22:08:52.931Z,99.90
2018-09-14T22:14:03.004Z,99.90
2018-09-14T22:19:13.398Z,99.90
2018-09-14T22:24:23.670Z,99.90
2018-09-14T22:29:33.552Z,99.90
2018-09-14T22:34:43.910Z,99.90
2018-09-14T22:39:53.787Z,99.90
2018-09-14T22:45:03.839Z,99.90
2018-09-14T22:50:13.935Z,99.90
2018-09-14T22:55:23.852Z,99.90
2018-09-14T23:00:39.415Z,99.90
2018-09-14T23:05:49.479Z,99.90
2018-09-14T23:10:59.368Z,99.90
2018-09-14T23:16:09.400Z,99.90
2018-09-14T23:21:19.519Z,99.90
2018-09-14T23:26:29.877Z,99.90
2018-09-14T23:31:39.841Z,99.90
2018-09-14T23:36:49.764Z,99.90
2018-09-14T23:41:59.751Z,99.90
2018-09-14T23:47:09.912Z,99.90
2018-09-14T23:52:20.052Z,99.90
2018-09-14T23:57:30.091Z,99.90
